sensor_id;sensor_type;location;lat;lon;timestamp;P1;durP1;ratioP1;P2;durP2;ratioP2
59038;SDS011;44824;43.376;19.630;2023-03-30T00:00:33;28.75;;;16.08;;
59038;SDS011;44824;43.376;19.630;2023-03-30T00:03:05;26.35;;;14.18;;
59038;SDS011;44824;43.376;19.630;2023-03-30T00:05:34;22.48;;;12.02;;
59038;SDS011;44824;43.376;19.630;2023-03-30T00:08:02;19.48;;;10.90;;
59038;SDS011;44824;43.376;19.630;2023-03-30T00:10:48;27.90;;;15.30;;
59038;SDS011;44824;43.376;19.630;2023-03-30T00:13:19;37.78;;;20.45;;
59038;SDS011;44824;43.376;19.630;2023-03-30T00:15:49;35.30;;;20.08;;
59038;SDS011;44824;43.376;19.630;2023-03-30T00:18:47;20.73;;;12.00;;
59038;SDS011;44824;43.376;19.630;2023-03-30T00:21:14;18.48;;;10.70;;
59038;SDS011;44824;43.376;19.630;2023-03-30T00:23:44;19.52;;;11.02;;
59038;SDS011;44824;43.376;19.630;2023-03-30T00:26:31;18.15;;;10.50;;
59038;SDS011;44824;43.376;19.630;2023-03-30T00:29:26;20.80;;;11.77;;
59038;SDS011;44824;43.376;19.630;2023-03-30T00:31:53;25.15;;;13.35;;
59038;SDS011;44824;43.376;19.630;2023-03-30T00:34:24;18.52;;;10.35;;
59038;SDS011;44824;43.376;19.630;2023-03-30T00:36:53;20.42;;;10.82;;
59038;SDS011;44824;43.376;19.630;2023-03-30T00:39:25;18.30;;;10.60;;
59038;SDS011;44824;43.376;19.630;2023-03-30T00:41:58;21.13;;;10.35;;
59038;SDS011;44824;43.376;19.630;2023-03-30T00:47:23;29.00;;;13.43;;
59038;SDS011;44824;43.376;19.630;2023-03-30T00:49:55;22.55;;;12.02;;
59038;SDS011;44824;43.376;19.630;2023-03-30T00:52:43;25.30;;;13.38;;
59038;SDS011;44824;43.376;19.630;2023-03-30T00:55:11;26.30;;;13.50;;
59038;SDS011;44824;43.376;19.630;2023-03-30T00:57:39;25.45;;;13.48;;
59038;SDS011;44824;43.376;19.630;2023-03-30T01:00:07;23.58;;;12.93;;
59038;SDS011;44824;43.376;19.630;2023-03-30T01:02:39;28.10;;;14.10;;
59038;SDS011;44824;43.376;19.630;2023-03-30T01:05:06;24.02;;;12.27;;
59038;SDS011;44824;43.376;19.630;2023-03-30T01:07:41;26.27;;;13.27;;
59038;SDS011;44824;43.376;19.630;2023-03-30T01:10:17;22.80;;;12.02;;
59038;SDS011;44824;43.376;19.630;2023-03-30T01:13:13;21.95;;;11.25;;
59038;SDS011;44824;43.376;19.630;2023-03-30T01:19:05;20.85;;;11.25;;
59038;SDS011;44824;43.376;19.630;2023-03-30T01:47:35;13.13;;;6.90;;
59038;SDS011;44824;43.376;19.630;2023-03-30T01:53:24;22.17;;;12.95;;
59038;SDS011;44824;43.376;19.630;2023-03-30T01:56:11;9.80;;;4.95;;
59038;SDS011;44824;43.376;19.630;2023-03-30T01:59:04;11.93;;;4.85;;
59038;SDS011;44824;43.376;19.630;2023-03-30T02:01:52;24.58;;;13.55;;
59038;SDS011;44824;43.376;19.630;2023-03-30T02:07:14;17.70;;;10.75;;
59038;SDS011;44824;43.376;19.630;2023-03-30T02:09:52;10.57;;;4.47;;
59038;SDS011;44824;43.376;19.630;2023-03-30T02:12:26;11.13;;;4.15;;
59038;SDS011;44824;43.376;19.630;2023-03-30T02:15:06;11.57;;;4.82;;
59038;SDS011;44824;43.376;19.630;2023-03-30T02:18:10;15.90;;;7.07;;
59038;SDS011;44824;43.376;19.630;2023-03-30T02:24:10;16.10;;;7.63;;
59038;SDS011;44824;43.376;19.630;2023-03-30T02:27:16;18.92;;;9.00;;
59038;SDS011;44824;43.376;19.630;2023-03-30T02:30:05;13.35;;;7.32;;
59038;SDS011;44824;43.376;19.630;2023-03-30T02:36:02;17.23;;;8.60;;
59038;SDS011;44824;43.376;19.630;2023-03-30T02:53:44;23.50;;;12.40;;
59038;SDS011;44824;43.376;19.630;2023-03-30T03:02:00;27.55;;;14.15;;
59038;SDS011;44824;43.376;19.630;2023-03-30T03:07:45;23.48;;;13.07;;
59038;SDS011;44824;43.376;19.630;2023-03-30T03:10:18;28.17;;;15.82;;
59038;SDS011;44824;43.376;19.630;2023-03-30T03:13:07;29.27;;;15.07;;
59038;SDS011;44824;43.376;19.630;2023-03-30T03:15:55;26.50;;;14.65;;
59038;SDS011;44824;43.376;19.630;2023-03-30T03:18:36;24.77;;;12.95;;
59038;SDS011;44824;43.376;19.630;2023-03-30T03:21:25;32.97;;;14.13;;
59038;SDS011;44824;43.376;19.630;2023-03-30T03:24:15;27.52;;;13.98;;
59038;SDS011;44824;43.376;19.630;2023-03-30T03:27:26;25.73;;;14.05;;
59038;SDS011;44824;43.376;19.630;2023-03-30T03:36:35;21.63;;;11.20;;
59038;SDS011;44824;43.376;19.630;2023-03-30T05:33:57;34.47;;;19.00;;
59038;SDS011;44824;43.376;19.630;2023-03-30T05:36:41;86.13;;;57.65;;
59038;SDS011;44824;43.376;19.630;2023-03-30T05:39:27;56.42;;;34.45;;
59038;SDS011;44824;43.376;19.630;2023-03-30T05:53:22;41.17;;;26.27;;
59038;SDS011;44824;43.376;19.630;2023-03-30T05:56:11;59.75;;;27.88;;
59038;SDS011;44824;43.376;19.630;2023-03-30T05:58:40;42.90;;;24.73;;
59038;SDS011;44824;43.376;19.630;2023-03-30T06:01:16;56.97;;;27.05;;
59038;SDS011;44824;43.376;19.630;2023-03-30T06:06:50;42.40;;;22.48;;
59038;SDS011;44824;43.376;19.630;2023-03-30T06:09:31;43.80;;;27.65;;
59038;SDS011;44824;43.376;19.630;2023-03-30T06:11:58;50.28;;;29.88;;
59038;SDS011;44824;43.376;19.630;2023-03-30T06:15:12;233.13;;;109.88;;
59038;SDS011;44824;43.376;19.630;2023-03-30T06:18:21;311.23;;;169.13;;
59038;SDS011;44824;43.376;19.630;2023-03-30T06:21:26;84.45;;;55.38;;
59038;SDS011;44824;43.376;19.630;2023-03-30T06:27:47;60.00;;;40.20;;
59038;SDS011;44824;43.376;19.630;2023-03-30T06:30:39;47.40;;;31.40;;
59038;SDS011;44824;43.376;19.630;2023-03-30T06:33:10;43.58;;;27.45;;
59038;SDS011;44824;43.376;19.630;2023-03-30T06:35:43;37.15;;;20.25;;
59038;SDS011;44824;43.376;19.630;2023-03-30T06:38:40;30.42;;;19.25;;
59038;SDS011;44824;43.376;19.630;2023-03-30T06:41:30;26.85;;;15.32;;
59038;SDS011;44824;43.376;19.630;2023-03-30T06:43:57;29.23;;;15.05;;
59038;SDS011;44824;43.376;19.630;2023-03-30T06:46:35;25.92;;;14.77;;
59038;SDS011;44824;43.376;19.630;2023-03-30T06:52:51;26.13;;;14.85;;
59038;SDS011;44824;43.376;19.630;2023-03-30T06:55:38;24.88;;;12.63;;
59038;SDS011;44824;43.376;19.630;2023-03-30T06:58:05;21.10;;;12.35;;
59038;SDS011;44824;43.376;19.630;2023-03-30T07:00:48;14.63;;;8.75;;
59038;SDS011;44824;43.376;19.630;2023-03-30T07:03:19;15.68;;;8.52;;
59038;SDS011;44824;43.376;19.630;2023-03-30T07:05:46;14.65;;;8.55;;
59038;SDS011;44824;43.376;19.630;2023-03-30T07:08:33;16.58;;;8.73;;
59038;SDS011;44824;43.376;19.630;2023-03-30T07:11:05;18.55;;;10.02;;
59038;SDS011;44824;43.376;19.630;2023-03-30T07:13:40;14.05;;;6.22;;
59038;SDS011;44824;43.376;19.630;2023-03-30T07:16:45;10.82;;;4.97;;
59038;SDS011;44824;43.376;19.630;2023-03-30T07:19:27;13.93;;;5.75;;
59038;SDS011;44824;43.376;19.630;2023-03-30T07:21:59;11.13;;;5.10;;
59038;SDS011;44824;43.376;19.630;2023-03-30T07:24:26;9.07;;;4.53;;
59038;SDS011;44824;43.376;19.630;2023-03-30T07:26:56;8.40;;;3.72;;
59038;SDS011;44824;43.376;19.630;2023-03-30T07:29:24;13.88;;;7.85;;
59038;SDS011;44824;43.376;19.630;2023-03-30T07:31:52;24.33;;;14.80;;
59038;SDS011;44824;43.376;19.630;2023-03-30T07:34:20;26.10;;;16.58;;
59038;SDS011;44824;43.376;19.630;2023-03-30T07:36:54;11.15;;;5.63;;
59038;SDS011;44824;43.376;19.630;2023-03-30T07:39:23;11.23;;;6.25;;
59038;SDS011;44824;43.376;19.630;2023-03-30T07:41:49;16.00;;;9.18;;
59038;SDS011;44824;43.376;19.630;2023-03-30T07:44:15;14.30;;;9.20;;
59038;SDS011;44824;43.376;19.630;2023-03-30T07:52:06;10.00;;;4.82;;
59038;SDS011;44824;43.376;19.630;2023-03-30T07:54:52;11.15;;;5.93;;
59038;SDS011;44824;43.376;19.630;2023-03-30T07:57:19;11.38;;;4.78;;
59038;SDS011;44824;43.376;19.630;2023-03-30T07:59:48;15.05;;;9.23;;
59038;SDS011;44824;43.376;19.630;2023-03-30T08:02:14;13.63;;;7.07;;
59038;SDS011;44824;43.376;19.630;2023-03-30T08:04:40;16.23;;;5.18;;
59038;SDS011;44824;43.376;19.630;2023-03-30T08:07:07;10.70;;;5.57;;
59038;SDS011;44824;43.376;19.630;2023-03-30T08:09:36;10.67;;;5.87;;
59038;SDS011;44824;43.376;19.630;2023-03-30T08:12:02;12.20;;;5.70;;
59038;SDS011;44824;43.376;19.630;2023-03-30T08:14:29;10.65;;;5.03;;
59038;SDS011;44824;43.376;19.630;2023-03-30T08:16:55;9.00;;;4.32;;
59038;SDS011;44824;43.376;19.630;2023-03-30T08:19:40;10.35;;;4.63;;
59038;SDS011;44824;43.376;19.630;2023-03-30T08:22:06;12.13;;;6.20;;
59038;SDS011;44824;43.376;19.630;2023-03-30T08:24:32;8.52;;;4.15;;
59038;SDS011;44824;43.376;19.630;2023-03-30T08:27:04;10.00;;;4.85;;
59038;SDS011;44824;43.376;19.630;2023-03-30T08:29:35;7.20;;;3.05;;
59038;SDS011;44824;43.376;19.630;2023-03-30T08:32:07;7.60;;;2.42;;
59038;SDS011;44824;43.376;19.630;2023-03-30T08:34:48;5.40;;;2.00;;
59038;SDS011;44824;43.376;19.630;2023-03-30T08:37:14;7.68;;;2.60;;
59038;SDS011;44824;43.376;19.630;2023-03-30T08:39:40;9.43;;;3.40;;
59038;SDS011;44824;43.376;19.630;2023-03-30T08:44:57;6.05;;;2.00;;
59038;SDS011;44824;43.376;19.630;2023-03-30T08:47:32;7.20;;;1.90;;
59038;SDS011;44824;43.376;19.630;2023-03-30T08:50:07;4.95;;;1.83;;
59038;SDS011;44824;43.376;19.630;2023-03-30T08:52:36;5.22;;;1.70;;
59038;SDS011;44824;43.376;19.630;2023-03-30T08:55:02;8.13;;;2.50;;
59038;SDS011;44824;43.376;19.630;2023-03-30T09:02:36;4.63;;;1.38;;
59038;SDS011;44824;43.376;19.630;2023-03-30T09:10:41;5.57;;;1.15;;
59038;SDS011;44824;43.376;19.630;2023-03-30T09:13:08;35.65;;;20.23;;
59038;SDS011;44824;43.376;19.630;2023-03-30T09:15:38;4.90;;;1.40;;
59038;SDS011;44824;43.376;19.630;2023-03-30T09:20:39;8.88;;;3.60;;
59038;SDS011;44824;43.376;19.630;2023-03-30T09:23:14;4.50;;;1.40;;
59038;SDS011;44824;43.376;19.630;2023-03-30T09:28:23;9.30;;;4.70;;
59038;SDS011;44824;43.376;19.630;2023-03-30T09:30:51;4.20;;;0.90;;
59038;SDS011;44824;43.376;19.630;2023-03-30T09:33:26;4.70;;;1.10;;
59038;SDS011;44824;43.376;19.630;2023-03-30T09:38:37;4.55;;;1.45;;
59038;SDS011;44824;43.376;19.630;2023-03-30T09:43:42;4.13;;;1.23;;
59038;SDS011;44824;43.376;19.630;2023-03-30T09:56:47;7.20;;;1.95;;
59038;SDS011;44824;43.376;19.630;2023-03-30T10:07:40;4.57;;;1.40;;
59038;SDS011;44824;43.376;19.630;2023-03-30T10:13:04;5.20;;;1.10;;
59038;SDS011;44824;43.376;19.630;2023-03-30T10:15:30;3.67;;;0.75;;
59038;SDS011;44824;43.376;19.630;2023-03-30T10:18:00;4.05;;;1.00;;
59038;SDS011;44824;43.376;19.630;2023-03-30T10:20:32;6.30;;;1.20;;
59038;SDS011;44824;43.376;19.630;2023-03-30T10:23:02;4.30;;;1.40;;
59038;SDS011;44824;43.376;19.630;2023-03-30T10:25:30;5.80;;;1.30;;
59038;SDS011;44824;43.376;19.630;2023-03-30T10:27:59;6.03;;;1.30;;
59038;SDS011;44824;43.376;19.630;2023-03-30T10:30:26;4.25;;;0.95;;
59038;SDS011;44824;43.376;19.630;2023-03-30T10:32:54;4.57;;;1.00;;
59038;SDS011;44824;43.376;19.630;2023-03-30T10:35:22;5.32;;;0.93;;
59038;SDS011;44824;43.376;19.630;2023-03-30T10:37:50;5.72;;;1.08;;
59038;SDS011;44824;43.376;19.630;2023-03-30T10:40:18;6.18;;;1.00;;
59038;SDS011;44824;43.376;19.630;2023-03-30T10:42:45;3.72;;;1.10;;
59038;SDS011;44824;43.376;19.630;2023-03-30T10:45:15;5.20;;;1.80;;
59038;SDS011;44824;43.376;19.630;2023-03-30T10:47:46;5.68;;;2.00;;
59038;SDS011;44824;43.376;19.630;2023-03-30T10:50:17;5.20;;;1.80;;
59038;SDS011;44824;43.376;19.630;2023-03-30T10:53:00;5.55;;;1.70;;
59038;SDS011;44824;43.376;19.630;2023-03-30T10:55:37;7.05;;;1.75;;
59038;SDS011;44824;43.376;19.630;2023-03-30T11:00:51;5.95;;;1.30;;
59038;SDS011;44824;43.376;19.630;2023-03-30T11:03:22;4.93;;;1.10;;
59038;SDS011;44824;43.376;19.630;2023-03-30T11:05:51;3.33;;;0.90;;
59038;SDS011;44824;43.376;19.630;2023-03-30T11:08:27;6.38;;;1.20;;
59038;SDS011;44824;43.376;19.630;2023-03-30T11:10:54;3.75;;;0.98;;
59038;SDS011;44824;43.376;19.630;2023-03-30T11:13:23;4.45;;;1.00;;
59038;SDS011;44824;43.376;19.630;2023-03-30T11:15:52;5.78;;;1.48;;
59038;SDS011;44824;43.376;19.630;2023-03-30T11:26:37;6.72;;;1.83;;
59038;SDS011;44824;43.376;19.630;2023-03-30T11:31:55;5.32;;;1.50;;
59038;SDS011;44824;43.376;19.630;2023-03-30T11:34:27;4.20;;;1.50;;
59038;SDS011;44824;43.376;19.630;2023-03-30T11:37:01;5.50;;;1.10;;
59038;SDS011;44824;43.376;19.630;2023-03-30T11:39:29;3.75;;;1.10;;
59038;SDS011;44824;43.376;19.630;2023-03-30T11:49:53;7.40;;;4.00;;
59038;SDS011;44824;43.376;19.630;2023-03-30T12:26:26;8.10;;;1.60;;
59038;SDS011;44824;43.376;19.630;2023-03-30T12:31:20;13.38;;;1.60;;
59038;SDS011;44824;43.376;19.630;2023-03-30T12:33:48;4.45;;;1.30;;
59038;SDS011;44824;43.376;19.630;2023-03-30T12:36:34;3.88;;;1.20;;
59038;SDS011;44824;43.376;19.630;2023-03-30T12:39:04;5.35;;;1.70;;
59038;SDS011;44824;43.376;19.630;2023-03-30T12:41:54;6.05;;;1.40;;
59038;SDS011;44824;43.376;19.630;2023-03-30T12:57:06;6.05;;;1.63;;
59038;SDS011;44824;43.376;19.630;2023-03-30T13:02:55;7.20;;;3.85;;
59038;SDS011;44824;43.376;19.630;2023-03-30T13:05:30;6.22;;;2.08;;
59038;SDS011;44824;43.376;19.630;2023-03-30T13:08:05;9.38;;;2.40;;
59038;SDS011;44824;43.376;19.630;2023-03-30T13:10:34;5.55;;;1.63;;
59038;SDS011;44824;43.376;19.630;2023-03-30T13:13:01;7.82;;;2.10;;
59038;SDS011;44824;43.376;19.630;2023-03-30T13:20:27;224.77;;;154.13;;
59038;SDS011;44824;43.376;19.630;2023-03-30T13:25:35;416.25;;;272.67;;
59038;SDS011;44824;43.376;19.630;2023-03-30T13:30:53;513.85;;;360.98;;
59038;SDS011;44824;43.376;19.630;2023-03-30T13:33:26;185.45;;;122.10;;
59038;SDS011;44824;43.376;19.630;2023-03-30T13:39:03;14.93;;;6.68;;
59038;SDS011;44824;43.376;19.630;2023-03-30T14:13:01;10.07;;;2.80;;
59038;SDS011;44824;43.376;19.630;2023-03-30T14:15:34;9.18;;;2.55;;
59038;SDS011;44824;43.376;19.630;2023-03-30T14:18:02;9.98;;;2.55;;
59038;SDS011;44824;43.376;19.630;2023-03-30T14:25:45;32.75;;;17.75;;
59038;SDS011;44824;43.376;19.630;2023-03-30T14:28:15;16.50;;;8.15;;
59038;SDS011;44824;43.376;19.630;2023-03-30T14:30:52;15.65;;;5.18;;
59038;SDS011;44824;43.376;19.630;2023-03-30T14:33:18;34.42;;;19.23;;
59038;SDS011;44824;43.376;19.630;2023-03-30T14:35:46;14.80;;;8.25;;
59038;SDS011;44824;43.376;19.630;2023-03-30T14:41:21;42.17;;;27.40;;
59038;SDS011;44824;43.376;19.630;2023-03-30T14:43:52;15.40;;;5.50;;
59038;SDS011;44824;43.376;19.630;2023-03-30T14:46:19;12.75;;;5.50;;
59038;SDS011;44824;43.376;19.630;2023-03-30T14:48:47;8.90;;;2.92;;
59038;SDS011;44824;43.376;19.630;2023-03-30T14:53:49;9.63;;;2.40;;
59038;SDS011;44824;43.376;19.630;2023-03-30T14:56:16;7.70;;;2.25;;
59038;SDS011;44824;43.376;19.630;2023-03-30T14:58:45;8.30;;;2.40;;
59038;SDS011;44824;43.376;19.630;2023-03-30T15:01:14;10.07;;;3.97;;
59038;SDS011;44824;43.376;19.630;2023-03-30T15:03:40;7.82;;;2.63;;
59038;SDS011;44824;43.376;19.630;2023-03-30T15:06:08;10.18;;;5.40;;
59038;SDS011;44824;43.376;19.630;2023-03-30T15:08:39;10.90;;;3.35;;
59038;SDS011;44824;43.376;19.630;2023-03-30T15:11:06;8.18;;;3.35;;
59038;SDS011;44824;43.376;19.630;2023-03-30T15:26:55;8.75;;;2.75;;
59038;SDS011;44824;43.376;19.630;2023-03-30T15:29:23;7.43;;;1.80;;
59038;SDS011;44824;43.376;19.630;2023-03-30T15:31:57;6.97;;;1.80;;
59038;SDS011;44824;43.376;19.630;2023-03-30T15:34:24;10.07;;;3.20;;
59038;SDS011;44824;43.376;19.630;2023-03-30T15:36:54;7.75;;;2.72;;
59038;SDS011;44824;43.376;19.630;2023-03-30T15:39:22;14.45;;;6.00;;
59038;SDS011;44824;43.376;19.630;2023-03-30T16:14:40;45.10;;;29.75;;
59038;SDS011;44824;43.376;19.630;2023-03-30T16:26:28;12.15;;;5.97;;
59038;SDS011;44824;43.376;19.630;2023-03-30T16:28:54;11.70;;;4.40;;
59038;SDS011;44824;43.376;19.630;2023-03-30T16:31:21;8.03;;;3.97;;
59038;SDS011;44824;43.376;19.630;2023-03-30T16:33:47;9.10;;;4.10;;
59038;SDS011;44824;43.376;19.630;2023-03-30T16:36:14;10.55;;;4.47;;
59038;SDS011;44824;43.376;19.630;2023-03-30T16:38:52;8.20;;;3.17;;
59038;SDS011;44824;43.376;19.630;2023-03-30T16:41:20;9.85;;;3.75;;
59038;SDS011;44824;43.376;19.630;2023-03-30T16:43:47;8.90;;;3.75;;
59038;SDS011;44824;43.376;19.630;2023-03-30T16:46:15;10.20;;;3.20;;
59038;SDS011;44824;43.376;19.630;2023-03-30T16:48:41;12.80;;;4.88;;
59038;SDS011;44824;43.376;19.630;2023-03-30T16:51:08;12.15;;;4.85;;
59038;SDS011;44824;43.376;19.630;2023-03-30T16:53:34;9.07;;;4.38;;
59038;SDS011;44824;43.376;19.630;2023-03-30T16:56:00;17.27;;;6.15;;
59038;SDS011;44824;43.376;19.630;2023-03-30T16:58:26;39.70;;;24.77;;
59038;SDS011;44824;43.376;19.630;2023-03-30T17:04:20;17.40;;;10.00;;
59038;SDS011;44824;43.376;19.630;2023-03-30T17:11:58;15.55;;;8.30;;
59038;SDS011;44824;43.376;19.630;2023-03-30T17:14:24;20.05;;;9.90;;
59038;SDS011;44824;43.376;19.630;2023-03-30T17:19:17;24.00;;;9.60;;
59038;SDS011;44824;43.376;19.630;2023-03-30T17:21:43;18.13;;;9.88;;
59038;SDS011;44824;43.376;19.630;2023-03-30T17:24:09;13.43;;;7.68;;
59038;SDS011;44824;43.376;19.630;2023-03-30T17:26:36;15.70;;;7.63;;
59038;SDS011;44824;43.376;19.630;2023-03-30T17:29:02;17.75;;;11.95;;
59038;SDS011;44824;43.376;19.630;2023-03-30T17:31:29;29.30;;;15.32;;
59038;SDS011;44824;43.376;19.630;2023-03-30T17:33:55;29.43;;;16.20;;
59038;SDS011;44824;43.376;19.630;2023-03-30T17:36:21;61.43;;;38.07;;
59038;SDS011;44824;43.376;19.630;2023-03-30T17:38:50;24.20;;;15.50;;
59038;SDS011;44824;43.376;19.630;2023-03-30T17:41:25;23.80;;;13.05;;
59038;SDS011;44824;43.376;19.630;2023-03-30T17:43:51;20.00;;;10.73;;
59038;SDS011;44824;43.376;19.630;2023-03-30T17:46:18;16.75;;;9.82;;
59038;SDS011;44824;43.376;19.630;2023-03-30T17:48:50;24.65;;;11.25;;
59038;SDS011;44824;43.376;19.630;2023-03-30T17:51:37;30.13;;;17.02;;
59038;SDS011;44824;43.376;19.630;2023-03-30T17:54:08;29.00;;;14.60;;
59038;SDS011;44824;43.376;19.630;2023-03-30T17:56:35;29.63;;;16.70;;
59038;SDS011;44824;43.376;19.630;2023-03-30T17:59:01;30.20;;;14.40;;
59038;SDS011;44824;43.376;19.630;2023-03-30T18:01:27;27.70;;;13.90;;
59038;SDS011;44824;43.376;19.630;2023-03-30T18:03:53;25.33;;;13.27;;
59038;SDS011;44824;43.376;19.630;2023-03-30T18:06:22;27.58;;;15.07;;
59038;SDS011;44824;43.376;19.630;2023-03-30T18:08:53;66.88;;;41.47;;
59038;SDS011;44824;43.376;19.630;2023-03-30T18:11:19;31.85;;;18.52;;
59038;SDS011;44824;43.376;19.630;2023-03-30T18:13:48;58.38;;;33.13;;
59038;SDS011;44824;43.376;19.630;2023-03-30T18:16:14;47.95;;;29.00;;
59038;SDS011;44824;43.376;19.630;2023-03-30T18:18:43;39.42;;;22.10;;
59038;SDS011;44824;43.376;19.630;2023-03-30T18:21:09;39.83;;;23.35;;
59038;SDS011;44824;43.376;19.630;2023-03-30T18:23:38;28.15;;;14.35;;
59038;SDS011;44824;43.376;19.630;2023-03-30T18:26:05;33.22;;;18.70;;
59038;SDS011;44824;43.376;19.630;2023-03-30T18:28:35;34.53;;;19.52;;
59038;SDS011;44824;43.376;19.630;2023-03-30T18:31:04;29.55;;;15.25;;
59038;SDS011;44824;43.376;19.630;2023-03-30T18:33:30;24.03;;;8.67;;
59038;SDS011;44824;43.376;19.630;2023-03-30T18:36:07;43.53;;;20.08;;
59038;SDS011;44824;43.376;19.630;2023-03-30T18:38:42;42.00;;;19.40;;
59038;SDS011;44824;43.376;19.630;2023-03-30T18:41:56;31.30;;;15.38;;
59038;SDS011;44824;43.376;19.630;2023-03-30T18:44:04;33.88;;;18.13;;
59038;SDS011;44824;43.376;19.630;2023-03-30T18:46:37;35.05;;;17.15;;
59038;SDS011;44824;43.376;19.630;2023-03-30T18:49:13;23.50;;;10.88;;
59038;SDS011;44824;43.376;19.630;2023-03-30T18:51:40;23.85;;;12.20;;
59038;SDS011;44824;43.376;19.630;2023-03-30T18:54:18;24.35;;;12.50;;
59038;SDS011;44824;43.376;19.630;2023-03-30T18:56:44;17.23;;;9.45;;
59038;SDS011;44824;43.376;19.630;2023-03-30T18:59:14;20.23;;;9.55;;
59038;SDS011;44824;43.376;19.630;2023-03-30T19:17:31;31.92;;;16.13;;
59038;SDS011;44824;43.376;19.630;2023-03-30T19:28:51;38.63;;;19.55;;
59038;SDS011;44824;43.376;19.630;2023-03-30T19:31:17;29.15;;;16.55;;
59038;SDS011;44824;43.376;19.630;2023-03-30T19:33:46;34.75;;;19.45;;
59038;SDS011;44824;43.376;19.630;2023-03-30T19:36:12;28.77;;;16.38;;
59038;SDS011;44824;43.376;19.630;2023-03-30T19:38:40;32.35;;;13.38;;
59038;SDS011;44824;43.376;19.630;2023-03-30T19:41:08;31.42;;;12.98;;
59038;SDS011;44824;43.376;19.630;2023-03-30T19:43:34;22.57;;;12.50;;
59038;SDS011;44824;43.376;19.630;2023-03-30T19:46:00;29.20;;;16.63;;
59038;SDS011;44824;43.376;19.630;2023-03-30T19:48:35;32.20;;;21.55;;
59038;SDS011;44824;43.376;19.630;2023-03-30T19:51:03;40.53;;;17.13;;
59038;SDS011;44824;43.376;19.630;2023-03-30T19:53:29;65.72;;;35.40;;
59038;SDS011;44824;43.376;19.630;2023-03-30T19:55:59;56.05;;;30.67;;
59038;SDS011;44824;43.376;19.630;2023-03-30T19:58:25;29.30;;;15.20;;
59038;SDS011;44824;43.376;19.630;2023-03-30T20:00:54;34.92;;;18.60;;
59038;SDS011;44824;43.376;19.630;2023-03-30T20:03:21;27.20;;;15.10;;
59038;SDS011;44824;43.376;19.630;2023-03-30T20:05:50;43.75;;;22.15;;
59038;SDS011;44824;43.376;19.630;2023-03-30T20:08:16;26.92;;;15.80;;
59038;SDS011;44824;43.376;19.630;2023-03-30T20:10:46;60.03;;;33.95;;
59038;SDS011;44824;43.376;19.630;2023-03-30T20:13:16;41.90;;;27.52;;
59038;SDS011;44824;43.376;19.630;2023-03-30T20:15:45;60.53;;;30.10;;
59038;SDS011;44824;43.376;19.630;2023-03-30T20:18:12;41.33;;;25.83;;
59038;SDS011;44824;43.376;19.630;2023-03-30T20:20:38;43.37;;;26.80;;
59038;SDS011;44824;43.376;19.630;2023-03-30T20:23:05;33.42;;;19.50;;
59038;SDS011;44824;43.376;19.630;2023-03-30T20:25:31;43.58;;;24.13;;
59038;SDS011;44824;43.376;19.630;2023-03-30T20:38:33;37.15;;;21.55;;
59038;SDS011;44824;43.376;19.630;2023-03-30T20:44:06;32.13;;;16.48;;
59038;SDS011;44824;43.376;19.630;2023-03-30T20:46:44;29.25;;;16.20;;
59038;SDS011;44824;43.376;19.630;2023-03-30T20:49:14;32.08;;;17.05;;
59038;SDS011;44824;43.376;19.630;2023-03-30T20:51:40;29.88;;;18.73;;
59038;SDS011;44824;43.376;19.630;2023-03-30T20:54:09;29.25;;;16.77;;
59038;SDS011;44824;43.376;19.630;2023-03-30T20:56:35;35.80;;;20.23;;
59038;SDS011;44824;43.376;19.630;2023-03-30T20:59:01;31.75;;;18.55;;
59038;SDS011;44824;43.376;19.630;2023-03-30T21:01:29;30.45;;;16.17;;
59038;SDS011;44824;43.376;19.630;2023-03-30T21:03:58;26.73;;;17.05;;
59038;SDS011;44824;43.376;19.630;2023-03-30T21:06:25;29.60;;;17.10;;
59038;SDS011;44824;43.376;19.630;2023-03-30T21:08:53;32.33;;;17.48;;
59038;SDS011;44824;43.376;19.630;2023-03-30T21:11:20;38.47;;;17.42;;
59038;SDS011;44824;43.376;19.630;2023-03-30T21:28:23;11.25;;;4.50;;
59038;SDS011;44824;43.376;19.630;2023-03-30T21:30:52;19.02;;;8.55;;
59038;SDS011;44824;43.376;19.630;2023-03-30T21:33:34;16.90;;;8.10;;
59038;SDS011;44824;43.376;19.630;2023-03-30T21:36:01;16.38;;;7.75;;
59038;SDS011;44824;43.376;19.630;2023-03-30T21:38:33;16.52;;;8.70;;
59038;SDS011;44824;43.376;19.630;2023-03-30T21:41:04;16.70;;;8.27;;
59038;SDS011;44824;43.376;19.630;2023-03-30T21:43:34;9.95;;;4.30;;
59038;SDS011;44824;43.376;19.630;2023-03-30T21:46:02;13.10;;;5.22;;
59038;SDS011;44824;43.376;19.630;2023-03-30T21:48:34;12.88;;;5.70;;
59038;SDS011;44824;43.376;19.630;2023-03-30T21:51:17;11.55;;;3.80;;
59038;SDS011;44824;43.376;19.630;2023-03-30T21:56:47;12.30;;;3.70;;
59038;SDS011;44824;43.376;19.630;2023-03-30T22:37:16;23.25;;;10.27;;
59038;SDS011;44824;43.376;19.630;2023-03-30T23:44:44;15.77;;;6.07;;
